Time,TemperatureF,DewpointF,PressureIn,WindDirection,WindDirectionDegrees,WindSpeedMPH,WindSpeedGustMPH,Humidity,HourlyPrecipIn,Conditions,Clouds,dailyrainin,SoftwareType,DateUTC
2013-01-29 00:00:00,66.6,60.6,29.62,WNW,286,8.0,13.0,81,0.00,,---,0.00,VWS V14.01,2013-01-29 06:00:00,
2013-01-29 00:03:00,66.6,60.6,29.62,West,271,5.0,8.0,81,0.00,,---,0.00,VWS V14.01,2013-01-29 06:03:00,
2013-01-29 00:08:00,66.4,60.7,29.62,West,262,6.0,11.0,82,0.00,,---,0.00,VWS V14.01,2013-01-29 06:08:00,
2013-01-29 00:13:00,66.4,60.7,29.62,SSW,202,3.0,11.0,82,0.00,,---,0.00,VWS V14.01,2013-01-29 06:13:00,
2013-01-29 00:18:00,66.4,60.7,29.61,West,267,10.0,11.0,82,0.00,,---,0.00,VWS V14.01,2013-01-29 06:18:00,
2013-01-29 00:23:00,66.6,60.9,29.61,WSW,247,5.0,11.0,82,0.00,,---,0.00,VWS V14.01,2013-01-29 06:23:00,
2013-01-29 00:28:00,66.6,60.9,29.61,WNW,285,8.0,11.0,82,0.00,,---,0.00,VWS V14.01,2013-01-29 06:28:00,
2013-01-29 00:30:00,66.6,60.9,29.61,WSW,249,5.0,12.0,82,0.00,,---,0.00,VWS V14.01,2013-01-29 06:30:00,
2013-01-29 00:33:00,66.6,60.9,29.61,West,269,7.0,7.0,82,0.00,,---,0.00,VWS V14.01,2013-01-29 06:33:00,
2013-01-29 00:38:00,66.6,60.9,29.61,WSW,254,7.0,10.0,82,0.00,,---,0.00,VWS V14.01,2013-01-29 06:38:00,
2013-01-29 00:43:00,66.8,61.1,29.61,South,191,6.0,12.0,82,0.00,,---,0.00,VWS V14.01,2013-01-29 06:43:00,
2013-01-29 00:48:00,66.9,61.2,29.60,West,276,7.0,13.0,82,0.00,,---,0.00,VWS V14.01,2013-01-29 06:48:00,
2013-01-29 00:53:00,66.6,60.9,29.60,WSW,247,7.0,13.0,82,0.02,,---,0.02,VWS V14.01,2013-01-29 06:53:00,
2013-01-29 00:58:00,66.6,61.3,29.60,WSW,247,13.0,18.0,83,0.03,,---,0.03,VWS V14.01,2013-01-29 06:58:00,
2013-01-29 01:00:00,66.8,61.5,29.59,West,273,5.0,18.0,83,0.03,,---,0.03,VWS V14.01,2013-01-29 07:00:00,
2013-01-29 01:03:00,66.8,61.5,29.59,West,271,5.0,7.0,83,0.03,,---,0.03,VWS V14.01,2013-01-29 07:03:00,
2013-01-29 01:08:00,66.4,61.1,29.59,WSW,253,5.0,11.0,83,0.03,,---,0.03,VWS V14.01,2013-01-29 07:08:00,
2013-01-29 01:13:00,66.4,61.1,29.59,WNW,285,5.0,11.0,83,0.03,,---,0.03,VWS V14.01,2013-01-29 07:13:00,
2013-01-29 01:18:00,66.4,61.1,29.59,West,277,1.0,11.0,83,0.03,,---,0.03,VWS V14.01,2013-01-29 07:18:00,
2013-01-29 01:23:00,66.6,61.6,29.59,West,270,7.0,11.0,84,0.03,,---,0.03,VWS V14.01,2013-01-29 07:23:00,
2013-01-29 01:28:00,66.6,61.3,29.59,West,278,8.0,11.0,83,0.03,,---,0.03,VWS V14.01,2013-01-29 07:28:00,
2013-01-29 01:30:00,66.8,61.5,29.59,West,268,5.0,11.0,83,0.03,,---,0.03,VWS V14.01,2013-01-29 07:30:00,
2013-01-29 01:33:00,66.8,61.5,29.59,WNW,289,5.0,10.0,83,0.03,,---,0.03,VWS V14.01,2013-01-29 07:33:00,
2013-01-29 01:38:00,66.9,61.6,29.59,West,267,7.0,13.0,83,0.03,,---,0.03,VWS V14.01,2013-01-29 07:38:00,
2013-01-29 01:43:00,66.9,61.6,29.59,West,262,12.0,16.0,83,0.03,,---,0.03,VWS V14.01,2013-01-29 07:43:00,
2013-01-29 01:48:00,67.1,61.8,29.58,NW,309,4.0,17.0,83,0.03,,---,0.03,VWS V14.01,2013-01-29 07:48:00,
2013-01-29 01:53:00,67.1,61.8,29.58,SE,126,4.0,17.0,83,0.03,,---,0.03,VWS V14.01,2013-01-29 07:53:00,
2013-01-29 01:58:00,67.3,62.0,29.58,WSW,245,7.0,17.0,83,0.03,,---,0.03,VWS V14.01,2013-01-29 07:58:00,
2013-01-29 02:00:00,67.3,61.6,29.58,WSW,254,9.0,17.0,82,0.03,,---,0.03,VWS V14.01,2013-01-29 08:00:00,
2013-01-29 02:03:00,67.3,61.6,29.58,WSW,247,10.0,10.0,82,0.00,,---,0.03,VWS V14.01,2013-01-29 08:03:00,
2013-01-29 02:08:00,67.3,61.6,29.58,ENE,65,3.0,13.0,82,0.00,,---,0.03,VWS V14.01,2013-01-29 08:08:00,
2013-01-29 02:13:00,67.3,61.6,29.58,West,279,5.0,13.0,82,0.00,,---,0.03,VWS V14.01,2013-01-29 08:13:00,
2013-01-29 02:18:00,67.1,61.4,29.58,WSW,246,15.0,15.0,82,0.00,,---,0.03,VWS V14.01,2013-01-29 08:18:00,
2013-01-29 02:23:00,67.3,61.6,29.58,West,277,9.0,15.0,82,0.00,,---,0.03,VWS V14.01,2013-01-29 08:23:00,
2013-01-29 02:28:00,67.1,61.4,29.58,WSW,242,6.0,15.0,82,0.00,,---,0.03,VWS V14.01,2013-01-29 08:28:00,
2013-01-29 02:30:00,66.9,61.2,29.57,WSW,250,5.0,15.0,82,0.00,,---,0.03,VWS V14.01,2013-01-29 08:30:00,
2013-01-29 02:33:00,66.9,61.2,29.57,West,268,8.0,12.0,82,0.00,,---,0.03,VWS V14.01,2013-01-29 08:33:00,
2013-01-29 02:38:00,66.9,61.2,29.57,WNW,297,8.0,17.0,82,0.00,,---,0.03,VWS V14.01,2013-01-29 08:38:00,
2013-01-29 02:43:00,67.1,61.4,29.57,SW,218,6.0,17.0,82,0.00,,---,0.03,VWS V14.01,2013-01-29 08:43:00,
2013-01-29 02:48:00,66.9,61.2,29.57,West,275,7.0,17.0,82,0.00,,---,0.03,VWS V14.01,2013-01-29 08:48:00,
2013-01-29 02:53:00,66.9,61.2,29.57,SW,236,11.0,17.0,82,0.00,,---,0.03,VWS V14.01,2013-01-29 08:53:00,
2013-01-29 02:57:00,66.9,61.2,29.57,West,266,8.0,17.0,82,0.00,,---,0.03,VWS V14.01,2013-01-29 08:57:00,
2013-01-29 03:00:00,66.8,61.1,29.58,West,266,14.0,17.0,82,0.00,,---,0.03,VWS V14.01,2013-01-29 09:00:00,
2013-01-29 03:02:00,66.8,61.1,29.58,SW,236,5.0,14.0,82,0.00,,---,0.03,VWS V14.01,2013-01-29 09:02:00,
2013-01-29 03:07:00,66.8,61.1,29.58,WSW,255,8.0,14.0,82,0.00,,---,0.03,VWS V14.01,2013-01-29 09:07:00,
2013-01-29 03:12:00,66.6,60.9,29.58,WSW,248,6.0,20.0,82,0.00,,---,0.03,VWS V14.01,2013-01-29 09:12:00,
2013-01-29 03:17:00,66.6,60.9,29.58,WSW,237,7.0,20.0,82,0.00,,---,0.03,VWS V14.01,2013-01-29 09:17:00,
2013-01-29 03:22:00,66.6,60.9,29.58,WNW,283,10.0,21.0,82,0.00,,---,0.03,VWS V14.01,2013-01-29 09:22:00,
2013-01-29 03:27:00,66.6,60.9,29.58,SW,229,9.0,21.0,82,0.00,,---,0.03,VWS V14.01,2013-01-29 09:27:00,
2013-01-29 03:30:00,66.4,60.7,29.58,WSW,252,6.0,21.0,82,0.00,,---,0.03,VWS V14.01,2013-01-29 09:30:00,
2013-01-29 03:32:00,66.4,60.7,29.58,West,271,11.0,15.0,82,0.00,,---,0.03,VWS V14.01,2013-01-29 09:32:00,
2013-01-29 03:37:00,66.4,60.7,29.58,West,280,6.0,15.0,82,0.00,,---,0.03,VWS V14.01,2013-01-29 09:37:00,
2013-01-29 03:42:00,66.4,60.7,29.58,SW,219,10.0,16.0,82,0.00,,---,0.03,VWS V14.01,2013-01-29 09:42:00,
2013-01-29 03:47:00,66.1,60.5,29.57,SW,220,9.0,16.0,82,0.00,,---,0.03,VWS V14.01,2013-01-29 09:47:00,
2013-01-29 03:52:00,66.1,60.5,29.57,WSW,254,6.0,16.0,82,0.00,,---,0.03,VWS V14.01,2013-01-29 09:52:00,
2013-01-29 03:57:00,66.1,60.5,29.57,South,179,2.0,16.0,82,0.00,,---,0.03,VWS V14.01,2013-01-29 09:57:00,
2013-01-29 04:00:00,66.0,60.3,29.57,WSW,255,7.0,16.0,82,0.00,,---,0.03,VWS V14.01,2013-01-29 10:00:00,
2013-01-29 04:02:00,66.0,60.3,29.57,West,259,13.0,13.0,82,0.00,,---,0.03,VWS V14.01,2013-01-29 10:02:00,
2013-01-29 04:07:00,66.0,60.3,29.57,WSW,246,7.0,16.0,82,0.00,,---,0.03,VWS V14.01,2013-01-29 10:07:00,
2013-01-29 04:12:00,66.0,60.3,29.57,West,274,8.0,16.0,82,0.00,,---,0.03,VWS V14.01,2013-01-29 10:12:00,
2013-01-29 04:17:00,65.8,60.2,29.56,South,184,5.0,16.0,82,0.00,,---,0.03,VWS V14.01,2013-01-29 10:17:00,
2013-01-29 04:22:00,65.8,60.2,29.56,West,261,5.0,17.0,82,0.00,,---,0.03,VWS V14.01,2013-01-29 10:22:00,
2013-01-29 04:27:00,65.6,60.3,29.56,SW,223,5.0,17.0,83,0.00,,---,0.03,VWS V14.01,2013-01-29 10:27:00,
2013-01-29 04:30:00,65.6,60.3,29.56,WSW,258,6.0,17.0,83,0.00,,---,0.03,VWS V14.01,2013-01-29 10:30:00,
2013-01-29 04:32:00,65.6,60.3,29.56,West,270,10.0,10.0,83,0.00,,---,0.03,VWS V14.01,2013-01-29 10:32:00,
2013-01-29 04:37:00,65.5,60.2,29.56,SW,232,7.0,12.0,83,0.00,,---,0.03,VWS V14.01,2013-01-29 10:37:00,
2013-01-29 04:42:00,65.3,60.0,29.56,West,265,9.0,13.0,83,0.00,,---,0.03,VWS V14.01,2013-01-29 10:42:00,
2013-01-29 04:47:00,65.3,60.0,29.56,WSW,250,5.0,13.0,83,0.00,,---,0.03,VWS V14.01,2013-01-29 10:47:00,
2013-01-29 04:52:00,65.2,59.9,29.56,WNW,291,7.0,13.0,83,0.00,,---,0.03,VWS V14.01,2013-01-29 10:52:00,
2013-01-29 04:57:00,65.0,59.7,29.56,WNW,286,6.0,13.0,83,0.00,,---,0.03,VWS V14.01,2013-01-29 10:57:00,
2013-01-29 05:00:00,64.8,59.5,29.56,SSW,200,5.0,13.0,83,0.00,,---,0.03,VWS V14.01,2013-01-29 11:00:00,
2013-01-29 05:02:00,64.8,59.5,29.56,WSW,238,5.0,9.0,83,0.00,,---,0.03,VWS V14.01,2013-01-29 11:02:00,
2013-01-29 05:07:00,64.7,59.4,29.56,WSW,254,5.0,10.0,83,0.00,,---,0.03,VWS V14.01,2013-01-29 11:07:00,
2013-01-29 05:12:00,64.7,59.8,29.56,WSW,253,3.0,10.0,84,0.00,,---,0.03,VWS V14.01,2013-01-29 11:12:00,
2013-01-29 05:17:00,64.5,59.6,29.56,West,281,7.0,10.0,84,0.00,,---,0.03,VWS V14.01,2013-01-29 11:17:00,
2013-01-29 05:22:00,64.5,59.6,29.56,WNW,301,3.0,10.0,84,0.00,,---,0.03,VWS V14.01,2013-01-29 11:22:00,
2013-01-29 05:27:00,64.3,59.4,29.56,WSW,250,4.0,12.0,84,0.00,,---,0.03,VWS V14.01,2013-01-29 11:27:00,
2013-01-29 05:30:00,64.3,59.4,29.56,West,271,4.0,12.0,84,0.00,,---,0.03,VWS V14.01,2013-01-29 11:30:00,
2013-01-29 05:32:00,64.3,59.4,29.56,West,263,5.0,10.0,84,0.00,,---,0.03,VWS V14.01,2013-01-29 11:32:00,
2013-01-29 05:37:00,64.3,59.4,29.56,SSE,147,6.0,12.0,84,0.00,,---,0.03,VWS V14.01,2013-01-29 11:37:00,
2013-01-29 05:42:00,64.2,59.3,29.56,West,277,6.0,13.0,84,0.00,,---,0.03,VWS V14.01,2013-01-29 11:42:00,
2013-01-29 05:47:00,64.2,59.3,29.54,WNW,296,7.0,13.0,84,0.00,,---,0.03,VWS V14.01,2013-01-29 11:47:00,
2013-01-29 05:52:00,63.9,59.0,29.54,SSW,200,5.0,13.0,84,0.00,,---,0.03,VWS V14.01,2013-01-29 11:52:00,
2013-01-29 05:57:00,63.9,59.0,29.54,WSW,256,4.0,13.0,84,0.00,,---,0.03,VWS V14.01,2013-01-29 11:57:00,
2013-01-29 06:00:00,63.7,59.1,29.54,WSW,239,4.0,13.0,85,0.00,,---,0.03,VWS V14.01,2013-01-29 12:00:00,
2013-01-29 06:02:00,63.7,59.1,29.54,West,268,4.0,6.0,85,0.00,,---,0.03,VWS V14.01,2013-01-29 12:02:00,
2013-01-29 06:07:00,63.5,58.9,29.54,West,265,3.0,7.0,85,0.00,,---,0.03,VWS V14.01,2013-01-29 12:07:00,
2013-01-29 06:12:00,63.5,58.9,29.54,West,266,4.0,10.0,85,0.00,,---,0.03,VWS V14.01,2013-01-29 12:12:00,
2013-01-29 06:17:00,63.4,58.8,29.54,NW,325,2.0,10.0,85,0.00,,---,0.03,VWS V14.01,2013-01-29 12:17:00,
2013-01-29 06:22:00,63.4,58.8,29.54,WSW,244,3.0,11.0,85,0.00,,---,0.03,VWS V14.01,2013-01-29 12:22:00,
2013-01-29 06:27:00,63.2,58.6,29.54,West,273,6.0,11.0,85,0.00,,---,0.03,VWS V14.01,2013-01-29 12:27:00,
2013-01-29 06:30:00,63.2,58.6,29.54,SE,142,6.0,11.0,85,0.00,,---,0.03,VWS V14.01,2013-01-29 12:30:00,
2013-01-29 06:32:00,63.1,58.5,29.54,West,273,5.0,6.0,85,0.00,,---,0.03,VWS V14.01,2013-01-29 12:32:00,
2013-01-29 06:37:00,63.1,58.5,29.54,WNW,285,5.0,9.0,85,0.00,,---,0.03,VWS V14.01,2013-01-29 12:37:00,
2013-01-29 06:42:00,63.1,58.5,29.54,SW,218,7.0,9.0,85,0.00,,---,0.03,VWS V14.01,2013-01-29 12:42:00,
2013-01-29 06:47:00,63.1,58.5,29.53,South,182,4.0,9.0,85,0.00,,---,0.03,VWS V14.01,2013-01-29 12:47:00,
2013-01-29 06:52:00,63.1,58.5,29.53,SSW,202,4.0,9.0,85,0.00,,---,0.03,VWS V14.01,2013-01-29 12:52:00,
2013-01-29 06:57:00,62.9,58.7,29.53,WSW,240,7.0,9.0,86,0.00,,---,0.03,VWS V14.01,2013-01-29 12:57:00,
2013-01-29 07:00:00,62.9,58.7,29.53,WSW,253,3.0,9.0,86,0.00,,---,0.03,VWS V14.01,2013-01-29 13:00:00,
2013-01-29 07:02:00,62.9,58.7,29.53,West,259,1.0,5.0,86,0.00,,---,0.03,VWS V14.01,2013-01-29 13:02:00,
2013-01-29 07:07:00,62.9,58.7,29.53,WNW,286,2.0,6.0,86,0.00,,---,0.03,VWS V14.01,2013-01-29 13:07:00,
2013-01-29 07:12:00,62.7,58.5,29.53,West,263,3.0,6.0,86,0.00,,---,0.03,VWS V14.01,2013-01-29 13:12:00,
2013-01-29 07:17:00,62.7,58.5,29.51,WSW,244,1.0,6.0,86,0.00,,---,0.03,VWS V14.01,2013-01-29 13:17:00,
2013-01-29 07:22:00,62.6,58.4,29.51,West,269,1.0,6.0,86,0.00,,---,0.03,VWS V14.01,2013-01-29 13:22:00,
2013-01-29 07:27:00,62.6,58.4,29.51,South,175,4.0,6.0,86,0.00,,---,0.03,VWS V14.01,2013-01-29 13:27:00,
2013-01-29 07:30:00,62.6,58.4,29.52,WSW,257,4.0,6.0,86,0.00,,---,0.03,VWS V14.01,2013-01-29 13:30:00,
2013-01-29 07:32:00,62.6,58.4,29.52,West,265,2.0,4.0,86,0.00,,---,0.03,VWS V14.01,2013-01-29 13:32:00,
2013-01-29 07:37:00,62.6,58.4,29.52,WNW,288,3.0,5.0,86,0.00,,---,0.03,VWS V14.01,2013-01-29 13:37:00,
2013-01-29 07:42:00,62.6,58.4,29.52,West,265,3.0,7.0,86,0.00,,---,0.03,VWS V14.01,2013-01-29 13:42:00,
2013-01-29 07:47:00,62.6,58.4,29.53,SW,229,8.0,9.0,86,0.00,,---,0.03,VWS V14.01,2013-01-29 13:47:00,
2013-01-29 07:52:00,61.3,56.1,29.53,North,5,4.0,9.0,83,0.00,,---,0.03,VWS V14.01,2013-01-29 13:52:00,
2013-01-29 07:57:00,58.0,52.2,29.53,SSW,210,4.0,20.0,81,0.00,,---,0.03,VWS V14.01,2013-01-29 13:57:00,
2013-01-29 08:00:00,55.1,49.4,29.58,WNW,300,4.0,20.0,81,0.03,,---,0.06,VWS V14.01,2013-01-29 14:00:00,
2013-01-29 08:02:00,55.1,49.4,29.58,NW,317,4.0,6.0,81,0.03,,---,0.06,VWS V14.01,2013-01-29 14:02:00,
2013-01-29 08:07:00,53.3,48.0,29.58,NW,323,2.0,9.0,82,0.07,,---,0.10,VWS V14.01,2013-01-29 14:07:00,
2013-01-29 08:12:00,52.8,47.8,29.58,NNW,347,3.0,9.0,83,0.09,,---,0.12,VWS V14.01,2013-01-29 14:12:00,
2013-01-29 08:17:00,52.6,47.9,29.56,NNW,347,1.0,9.0,84,0.10,,---,0.13,VWS V14.01,2013-01-29 14:17:00,
2013-01-29 08:22:00,52.2,47.5,29.56,NW,315,4.0,9.0,84,0.12,,---,0.15,VWS V14.01,2013-01-29 14:22:00,
2013-01-29 08:27:00,51.7,47.3,29.56,NNW,343,4.0,9.0,85,0.15,,---,0.18,VWS V14.01,2013-01-29 14:27:00,
2013-01-29 08:30:00,51.1,46.8,29.58,NNW,336,7.0,9.0,85,0.17,,---,0.20,VWS V14.01,2013-01-29 14:30:00,
2013-01-29 08:32:00,51.1,46.8,29.58,NNW,344,7.0,7.0,85,0.17,,---,0.20,VWS V14.01,2013-01-29 14:32:00,
2013-01-29 08:37:00,50.5,46.2,29.58,NNW,336,1.0,10.0,85,0.20,,---,0.23,VWS V14.01,2013-01-29 14:37:00,
2013-01-29 08:42:00,50.2,46.2,29.58,NNW,333,4.0,10.0,86,0.21,,---,0.24,VWS V14.01,2013-01-29 14:42:00,
2013-01-29 08:47:00,49.8,45.8,29.61,NNW,331,5.0,10.0,86,0.24,,---,0.27,VWS V14.01,2013-01-29 14:47:00,
2013-01-29 08:52:00,49.4,45.4,29.61,NNW,329,0.0,10.0,86,0.27,,---,0.30,VWS V14.01,2013-01-29 14:52:00,
2013-01-29 08:57:00,48.9,45.2,29.61,NNE,21,4.0,10.0,87,0.29,,---,0.32,VWS V14.01,2013-01-29 14:57:00,
2013-01-29 09:00:00,48.5,44.8,29.61,North,11,2.0,10.0,87,0.32,,---,0.35,VWS V14.01,2013-01-29 15:00:00,
2013-01-29 09:02:00,48.5,44.8,29.61,NNW,347,3.0,3.0,87,0.29,,---,0.35,VWS V14.01,2013-01-29 15:02:00,
2013-01-29 09:07:00,48.2,44.5,29.61,NNW,338,0.0,7.0,87,0.31,,---,0.37,VWS V14.01,2013-01-29 15:07:00,
2013-01-29 09:12:00,48.0,44.3,29.61,NW,325,5.0,7.0,87,0.33,,---,0.39,VWS V14.01,2013-01-29 15:12:00,
2013-01-29 09:17:00,47.7,44.0,29.62,NNW,345,6.0,7.0,87,0.35,,---,0.41,VWS V14.01,2013-01-29 15:17:00,
2013-01-29 09:22:00,47.3,43.6,29.62,NW,308,5.0,10.0,87,0.37,,---,0.43,VWS V14.01,2013-01-29 15:22:00,
2013-01-29 09:27:00,46.7,43.0,29.62,NNW,333,5.0,10.0,87,0.39,,---,0.45,VWS V14.01,2013-01-29 15:27:00,
2013-01-29 09:30:00,46.2,42.8,29.60,NNW,332,0.0,10.0,88,0.40,,---,0.46,VWS V14.01,2013-01-29 15:30:00,
2013-01-29 09:32:00,46.2,42.8,29.60,NW,321,6.0,7.0,88,0.27,,---,0.47,VWS V14.01,2013-01-29 15:32:00,
2013-01-29 09:37:00,45.8,42.5,29.60,NNW,347,3.0,10.0,88,0.28,,---,0.48,VWS V14.01,2013-01-29 15:37:00,
2013-01-29 09:42:00,45.5,42.2,29.60,NNW,346,6.0,10.0,88,0.30,,---,0.50,VWS V14.01,2013-01-29 15:42:00,
2013-01-29 09:47:00,45.2,41.9,29.58,NNW,344,5.0,10.0,88,0.31,,---,0.51,VWS V14.01,2013-01-29 15:47:00,
2013-01-29 09:52:00,45.1,41.8,29.58,NNW,344,2.0,10.0,88,0.32,,---,0.52,VWS V14.01,2013-01-29 15:52:00,
2013-01-29 09:57:00,44.9,41.9,29.58,North,355,3.0,10.0,89,0.34,,---,0.54,VWS V14.01,2013-01-29 15:57:00,
2013-01-29 10:00:00,44.8,41.8,29.57,NNE,19,5.0,10.0,89,0.35,,---,0.55,VWS V14.01,2013-01-29 16:00:00,
2013-01-29 10:02:00,44.8,41.8,29.57,NNE,18,3.0,5.0,89,0.20,,---,0.55,VWS V14.01,2013-01-29 16:02:00,
2013-01-29 10:07:00,44.6,41.6,29.57,North,351,3.0,7.0,89,0.22,,---,0.57,VWS V14.01,2013-01-29 16:07:00,
2013-01-29 10:12:00,44.6,41.6,29.57,North,351,2.0,7.0,89,0.24,,---,0.59,VWS V14.01,2013-01-29 16:12:00,
2013-01-29 10:17:00,44.6,41.8,29.58,NNE,15,4.0,7.0,90,0.26,,---,0.61,VWS V14.01,2013-01-29 16:17:00,
2013-01-29 10:22:00,44.6,41.8,29.58,ENE,68,2.0,7.0,90,0.28,,---,0.63,VWS V14.01,2013-01-29 16:22:00,
2013-01-29 10:27:00,44.5,41.8,29.58,NNE,30,0.0,7.0,90,0.31,,---,0.66,VWS V14.01,2013-01-29 16:27:00,
2013-01-29 10:30:00,44.5,41.8,29.60,NNE,30,1.0,7.0,90,0.33,,---,0.68,VWS V14.01,2013-01-29 16:30:00,
2013-01-29 10:32:00,44.5,41.8,29.60,NNE,30,2.0,3.0,90,0.22,,---,0.68,VWS V14.01,2013-01-29 16:32:00,
2013-01-29 10:37:00,44.3,41.6,29.60,NNE,30,0.0,4.0,90,0.25,,---,0.71,VWS V14.01,2013-01-29 16:37:00,
2013-01-29 10:42:00,44.2,41.5,29.60,NNE,30,2.0,4.0,90,0.27,,---,0.73,VWS V14.01,2013-01-29 16:42:00,
2013-01-29 10:47:00,44.2,41.5,29.59,NNE,29,3.0,5.0,90,0.30,,---,0.76,VWS V14.01,2013-01-29 16:47:00,
2013-01-29 10:52:00,44.1,41.4,29.59,NNE,29,2.0,5.0,90,0.32,,---,0.78,VWS V14.01,2013-01-29 16:52:00,
2013-01-29 10:57:00,43.9,41.2,29.59,NNE,26,4.0,5.0,90,0.34,,---,0.80,VWS V14.01,2013-01-29 16:57:00,
2013-01-29 11:00:00,43.8,41.1,29.56,NNE,23,5.0,5.0,90,0.36,,---,0.82,VWS V14.01,2013-01-29 17:00:00,
2013-01-29 11:02:00,43.8,41.1,29.56,NNE,23,5.0,6.0,90,0.27,,---,0.82,VWS V14.01,2013-01-29 17:02:00,
2013-01-29 11:07:00,43.6,41.2,29.56,NNE,28,4.0,6.0,91,0.31,,---,0.86,VWS V14.01,2013-01-29 17:07:00,
2013-01-29 11:12:00,43.6,41.2,29.56,NNE,18,4.0,6.0,91,0.32,,---,0.87,VWS V14.01,2013-01-29 17:12:00,
2013-01-29 11:17:00,43.8,41.3,29.53,NNE,15,5.0,6.0,91,0.33,,---,0.88,VWS V14.01,2013-01-29 17:17:00,
2013-01-29 11:22:00,43.9,41.5,29.53,NE,39,2.0,6.0,91,0.33,,---,0.88,VWS V14.01,2013-01-29 17:22:00,
2013-01-29 11:27:00,43.9,41.5,29.53,NE,39,1.0,6.0,91,0.33,,---,0.88,VWS V14.01,2013-01-29 17:27:00,
2013-01-29 11:30:00,44.1,41.9,29.53,North,11,2.0,6.0,92,0.34,,---,0.89,VWS V14.01,2013-01-29 17:30:00,
2013-01-29 11:32:00,44.1,41.9,29.53,North,11,1.0,2.0,92,0.21,,---,0.89,VWS V14.01,2013-01-29 17:32:00,
2013-01-29 11:37:00,44.2,42.0,29.53,North,11,0.0,5.0,92,0.21,,---,0.89,VWS V14.01,2013-01-29 17:37:00,
2013-01-29 11:42:00,44.5,42.3,29.53,NNW,331,6.0,6.0,92,0.21,,---,0.89,VWS V14.01,2013-01-29 17:42:00,
2013-01-29 11:47:00,44.6,42.4,29.54,NW,320,0.0,6.0,92,0.22,,---,0.90,VWS V14.01,2013-01-29 17:47:00,
2013-01-29 11:52:00,44.6,42.4,29.54,NNW,344,2.0,6.0,92,0.23,,---,0.91,VWS V14.01,2013-01-29 17:52:00,
2013-01-29 11:57:00,44.5,42.3,29.54,NNW,333,0.0,6.0,92,0.24,,---,0.92,VWS V14.01,2013-01-29 17:57:00,
2013-01-29 12:00:00,44.1,41.9,29.55,North,349,2.0,6.0,92,0.26,,---,0.94,VWS V14.01,2013-01-29 18:00:00,
2013-01-29 12:02:00,44.1,41.9,29.55,North,349,3.0,3.0,92,0.12,,---,0.94,VWS V14.01,2013-01-29 18:02:00,
2013-01-29 12:07:00,43.9,41.7,29.55,North,355,3.0,6.0,92,0.13,,---,0.95,VWS V14.01,2013-01-29 18:07:00,
2013-01-29 12:12:00,43.8,41.6,29.55,North,5,1.0,6.0,92,0.14,,---,0.96,VWS V14.01,2013-01-29 18:12:00,
2013-01-29 12:17:00,43.6,41.4,29.51,NE,35,4.0,6.0,92,0.15,,---,0.97,VWS V14.01,2013-01-29 18:17:00,
2013-01-29 12:22:00,43.6,41.4,29.51,NE,51,2.0,6.0,92,0.16,,---,0.98,VWS V14.01,2013-01-29 18:22:00,
2013-01-29 12:27:00,43.5,41.3,29.51,NE,50,4.0,6.0,92,0.16,,---,0.98,VWS V14.01,2013-01-29 18:27:00,
2013-01-29 12:30:00,43.5,41.3,29.48,ENE,69,3.0,6.0,92,0.17,,---,0.99,VWS V14.01,2013-01-29 18:30:00,
2013-01-29 12:32:00,43.5,41.3,29.48,ENE,73,4.0,4.0,92,0.10,,---,0.99,VWS V14.01,2013-01-29 18:32:00,
2013-01-29 12:37:00,43.5,41.3,29.48,ENE,58,2.0,8.0,92,0.10,,---,0.99,VWS V14.01,2013-01-29 18:37:00,
2013-01-29 12:42:00,43.6,41.7,29.48,ENE,74,1.0,8.0,93,0.11,,---,1.00,VWS V14.01,2013-01-29 18:42:00,
2013-01-29 12:47:00,43.8,41.9,29.47,ESE,117,0.0,8.0,93,0.11,,---,1.00,VWS V14.01,2013-01-29 18:47:00,
2013-01-29 12:52:00,43.9,42.0,29.47,East,94,2.0,8.0,93,0.11,,---,1.00,VWS V14.01,2013-01-29 18:52:00,
2013-01-29 12:57:00,44.2,42.3,29.47,ESE,107,3.0,8.0,93,0.11,,---,1.00,VWS V14.01,2013-01-29 18:57:00,
2013-01-29 13:00:00,44.3,42.4,29.46,East,97,0.0,8.0,93,0.11,,---,1.00,VWS V14.01,2013-01-29 19:00:00,
2013-01-29 13:02:00,44.3,42.4,29.46,SSE,167,2.0,2.0,93,0.06,,---,1.00,VWS V14.01,2013-01-29 19:02:00,
2013-01-29 13:07:00,44.5,42.6,29.46,NNE,30,5.0,9.0,93,0.06,,---,1.00,VWS V14.01,2013-01-29 19:07:00,
2013-01-29 13:12:00,44.8,43.2,29.46,WSW,257,3.0,9.0,94,0.07,,---,1.01,VWS V14.01,2013-01-29 19:12:00,
2013-01-29 13:17:00,44.8,43.2,29.48,North,355,7.0,9.0,94,0.07,,---,1.01,VWS V14.01,2013-01-29 19:17:00,
2013-01-29 13:22:00,44.5,42.6,29.48,NNW,348,2.0,10.0,93,0.08,,---,1.02,VWS V14.01,2013-01-29 19:22:00,
2013-01-29 13:27:00,44.2,42.3,29.48,North,350,0.0,10.0,93,0.08,,---,1.02,VWS V14.01,2013-01-29 19:27:00,
2013-01-29 13:30:00,44.1,42.2,29.49,NNW,346,3.0,10.0,93,0.09,,---,1.03,VWS V14.01,2013-01-29 19:30:00,
2013-01-29 13:32:00,44.1,42.2,29.49,North,355,7.0,7.0,93,0.04,,---,1.03,VWS V14.01,2013-01-29 19:32:00,
2013-01-29 13:37:00,43.8,41.9,29.49,NNE,30,5.0,7.0,93,0.05,,---,1.04,VWS V14.01,2013-01-29 19:37:00,
2013-01-29 13:42:00,43.8,42.2,29.49,ENE,78,7.0,9.0,94,0.07,,---,1.06,VWS V14.01,2013-01-29 19:42:00,
2013-01-29 13:47:00,43.8,42.2,29.44,NNE,14,6.0,10.0,94,0.07,,---,1.06,VWS V14.01,2013-01-29 19:47:00,
2013-01-29 13:52:00,43.9,42.3,29.44,NE,37,3.0,10.0,94,0.07,,---,1.06,VWS V14.01,2013-01-29 19:52:00,
2013-01-29 13:57:00,44.1,42.5,29.44,NNE,29,5.0,10.0,94,0.08,,---,1.07,VWS V14.01,2013-01-29 19:57:00,
2013-01-29 13:58:00,44.1,42.5,29.44,NNE,29,4.0,10.0,94,0.08,,---,1.07,VWS V14.01,2013-01-29 19:58:00,
2013-01-29 14:00:00,44.1,42.5,29.43,NE,46,4.0,10.0,94,0.08,,---,1.07,VWS V14.01,2013-01-29 20:00:00,
2013-01-29 14:03:00,44.1,42.5,29.43,NE,46,0.0,4.0,94,0.07,,---,1.07,VWS V14.01,2013-01-29 20:03:00,
2013-01-29 14:08:00,44.1,42.5,29.43,NNW,335,5.0,7.0,94,0.07,,---,1.07,VWS V14.01,2013-01-29 20:08:00,
2013-01-29 14:13:00,43.8,42.2,29.43,NNW,334,6.0,8.0,94,0.07,,---,1.07,VWS V14.01,2013-01-29 20:13:00,
2013-01-29 14:18:00,43.2,41.6,29.44,NNW,341,1.0,10.0,94,0.07,,---,1.07,VWS V14.01,2013-01-29 20:18:00,
2013-01-29 14:23:00,42.6,41.0,29.44,North,355,4.0,10.0,94,0.07,,---,1.07,VWS V14.01,2013-01-29 20:23:00,
2013-01-29 14:28:00,41.9,40.3,29.44,North,350,5.0,10.0,94,0.07,,---,1.07,VWS V14.01,2013-01-29 20:28:00,
2013-01-29 14:30:00,41.6,40.0,29.43,North,360,4.0,10.0,94,0.07,,---,1.07,VWS V14.01,2013-01-29 20:30:00,
2013-01-29 14:33:00,41.5,39.9,29.43,NNE,12,4.0,8.0,94,0.04,,---,1.07,VWS V14.01,2013-01-29 20:33:00,
2013-01-29 14:38:00,41.1,39.5,29.43,North,5,8.0,13.0,94,0.04,,---,1.07,VWS V14.01,2013-01-29 20:38:00,
2013-01-29 14:43:00,40.8,39.2,29.43,North,350,7.0,13.0,94,0.04,,---,1.07,VWS V14.01,2013-01-29 20:43:00,
2013-01-29 14:48:00,40.6,39.0,29.43,NNW,346,5.0,13.0,94,0.04,,---,1.07,VWS V14.01,2013-01-29 20:48:00,
2013-01-29 14:53:00,40.5,38.9,29.43,NNW,342,3.0,13.0,94,0.04,,---,1.07,VWS V14.01,2013-01-29 20:53:00,
2013-01-29 14:58:00,40.5,38.9,29.43,NNW,340,2.0,13.0,94,0.04,,---,1.07,VWS V14.01,2013-01-29 20:58:00,
2013-01-29 15:00:00,40.3,38.7,29.48,NW,315,3.0,13.0,94,0.04,,---,1.07,VWS V14.01,2013-01-29 21:00:00,
2013-01-29 15:03:00,40.3,38.7,29.48,North,355,8.0,9.0,94,0.00,,---,1.07,VWS V14.01,2013-01-29 21:03:00,
2013-01-29 15:08:00,39.9,38.3,29.48,North,355,1.0,9.0,94,0.00,,---,1.07,VWS V14.01,2013-01-29 21:08:00,
2013-01-29 15:13:00,39.6,38.0,29.48,North,355,6.0,10.0,94,0.00,,---,1.07,VWS V14.01,2013-01-29 21:13:00,
2013-01-29 15:18:00,39.5,37.9,29.48,NW,318,1.0,10.0,94,0.00,,---,1.07,VWS V14.01,2013-01-29 21:18:00,
2013-01-29 15:23:00,39.3,37.7,29.48,NNE,22,8.0,11.0,94,0.00,,---,1.07,VWS V14.01,2013-01-29 21:23:00,
2013-01-29 15:28:00,38.9,37.3,29.48,NNE,28,8.0,11.0,94,0.00,,---,1.07,VWS V14.01,2013-01-29 21:28:00,
2013-01-29 15:30:00,38.6,37.0,29.51,NNW,332,1.0,11.0,94,0.00,,---,1.07,VWS V14.01,2013-01-29 21:30:00,
2013-01-29 15:33:00,38.6,37.0,29.51,NNW,342,6.0,6.0,94,0.00,,---,1.07,VWS V14.01,2013-01-29 21:33:00,
2013-01-29 15:38:00,38.3,36.7,29.51,NNW,347,5.0,10.0,94,0.00,,---,1.07,VWS V14.01,2013-01-29 21:38:00,
2013-01-29 15:43:00,38.2,36.6,29.51,North,5,8.0,13.0,94,0.01,,---,1.08,VWS V14.01,2013-01-29 21:43:00,
2013-01-29 15:48:00,38.0,36.4,29.52,NNE,15,2.0,13.0,94,0.01,,---,1.08,VWS V14.01,2013-01-29 21:48:00,
2013-01-29 15:53:00,37.8,36.2,29.52,NNE,16,12.0,13.0,94,0.01,,---,1.08,VWS V14.01,2013-01-29 21:53:00,
2013-01-29 15:58:00,37.5,35.9,29.52,NW,312,6.0,13.0,94,0.01,,---,1.08,VWS V14.01,2013-01-29 21:58:00,
2013-01-29 16:00:00,37.5,36.2,29.45,NNW,344,12.0,15.0,95,0.01,,---,1.08,VWS V14.01,2013-01-29 22:00:00,
2013-01-29 16:03:00,37.5,36.2,29.45,North,355,12.0,16.0,95,0.01,,---,1.08,VWS V14.01,2013-01-29 22:03:00,
2013-01-29 16:08:00,37.3,36.0,29.45,NW,320,0.0,16.0,95,0.01,,---,1.08,VWS V14.01,2013-01-29 22:08:00,
2013-01-29 16:13:00,37.3,36.0,29.45,North,360,5.0,16.0,95,0.01,,---,1.08,VWS V14.01,2013-01-29 22:13:00,
2013-01-29 16:18:00,37.2,35.9,29.49,NNW,333,8.0,16.0,95,0.01,,---,1.08,VWS V14.01,2013-01-29 22:18:00,
2013-01-29 16:23:00,37.2,35.9,29.49,NNW,335,9.0,16.0,95,0.01,,---,1.08,VWS V14.01,2013-01-29 22:23:00,
2013-01-29 16:28:00,37.0,35.7,29.49,NNW,331,4.0,16.0,95,0.01,,---,1.08,VWS V14.01,2013-01-29 22:28:00,
2013-01-29 16:30:00,37.0,35.7,29.50,NNW,328,5.0,16.0,95,0.01,,---,1.08,VWS V14.01,2013-01-29 22:30:00,
2013-01-29 16:33:00,37.0,35.7,29.50,NNW,348,9.0,9.0,95,0.01,,---,1.08,VWS V14.01,2013-01-29 22:33:00,
2013-01-29 16:38:00,36.9,35.6,29.50,North,5,8.0,18.0,95,0.01,,---,1.08,VWS V14.01,2013-01-29 22:38:00,
2013-01-29 16:43:00,36.9,35.6,29.50,NE,38,11.0,18.0,95,0.01,,---,1.08,VWS V14.01,2013-01-29 22:43:00,
2013-01-29 16:48:00,36.8,35.5,29.48,North,5,6.0,18.0,95,0.01,,---,1.08,VWS V14.01,2013-01-29 22:48:00,
2013-01-29 16:53:00,36.8,35.5,29.48,NNE,28,7.0,18.0,95,0.01,,---,1.08,VWS V14.01,2013-01-29 22:53:00,
2013-01-29 16:58:00,36.8,35.5,29.48,North,360,13.0,18.0,95,0.01,,---,1.08,VWS V14.01,2013-01-29 22:58:00,
2013-01-29 17:00:00,36.8,35.8,29.48,NNW,347,8.0,18.0,96,0.01,,---,1.08,VWS V14.01,2013-01-29 23:00:00,
2013-01-29 17:03:00,36.8,35.5,29.48,North,350,5.0,8.0,95,0.00,,---,1.08,VWS V14.01,2013-01-29 23:03:00,
2013-01-29 17:08:00,36.8,35.8,29.48,North,349,8.0,10.0,96,0.00,,---,1.08,VWS V14.01,2013-01-29 23:08:00,
2013-01-29 17:13:00,36.9,35.9,29.48,NNW,334,8.0,10.0,96,0.00,,---,1.08,VWS V14.01,2013-01-29 23:13:00,
2013-01-29 17:18:00,36.9,35.9,29.50,North,355,4.0,10.0,96,0.00,,---,1.08,VWS V14.01,2013-01-29 23:18:00,
2013-01-29 17:23:00,36.9,35.9,29.50,North,351,8.0,10.0,96,0.00,,---,1.08,VWS V14.01,2013-01-29 23:23:00,
2013-01-29 17:28:00,36.9,35.9,29.50,North,355,7.0,10.0,96,0.00,,---,1.08,VWS V14.01,2013-01-29 23:28:00,
2013-01-29 17:30:00,36.8,35.8,29.51,NNE,20,4.0,10.0,96,0.01,,---,1.09,VWS V14.01,2013-01-29 23:30:00,
2013-01-29 17:33:00,36.8,35.8,29.51,NE,38,7.0,8.0,96,0.01,,---,1.09,VWS V14.01,2013-01-29 23:33:00,
2013-01-29 17:38:00,36.9,35.9,29.51,NNW,334,1.0,9.0,96,0.01,,---,1.09,VWS V14.01,2013-01-29 23:38:00,
2013-01-29 17:43:00,36.8,35.8,29.51,North,350,8.0,10.0,96,0.01,,---,1.09,VWS V14.01,2013-01-29 23:43:00,
2013-01-29 17:48:00,36.6,35.6,29.52,NNW,335,7.0,11.0,96,0.01,,---,1.09,VWS V14.01,2013-01-29 23:48:00,
2013-01-29 17:53:00,36.6,35.6,29.52,NNW,344,7.0,14.0,96,0.01,,---,1.09,VWS V14.01,2013-01-29 23:53:00,
2013-01-29 17:58:00,36.5,35.5,29.52,North,355,9.0,14.0,96,0.01,,---,1.09,VWS V14.01,2013-01-29 23:58:00,
2013-01-29 18:00:00,36.5,35.5,29.47,North,355,12.0,14.0,96,0.01,,---,1.09,VWS V14.01,2013-01-30 00:00:00,
2013-01-29 18:03:00,36.5,35.5,29.47,NNW,347,12.0,13.0,96,0.01,,---,1.09,VWS V14.01,2013-01-30 00:03:00,
2013-01-29 18:08:00,36.5,35.5,29.47,NNW,343,6.0,14.0,96,0.01,,---,1.09,VWS V14.01,2013-01-30 00:08:00,
2013-01-29 18:13:00,36.3,35.3,29.47,NW,317,3.0,14.0,96,0.01,,---,1.09,VWS V14.01,2013-01-30 00:13:00,
2013-01-29 18:18:00,36.2,35.2,29.47,NNW,343,0.0,14.0,96,0.01,,---,1.09,VWS V14.01,2013-01-30 00:18:00,
2013-01-29 18:23:00,36.2,35.2,29.47,North,360,3.0,14.0,96,0.01,,---,1.09,VWS V14.01,2013-01-30 00:23:00,
2013-01-29 18:28:00,36.2,35.2,29.47,North,360,7.0,14.0,96,0.01,,---,1.09,VWS V14.01,2013-01-30 00:28:00,
2013-01-29 18:30:00,36.2,35.2,29.49,NNE,30,5.0,14.0,96,0.01,,---,1.09,VWS V14.01,2013-01-30 00:30:00,
2013-01-29 18:33:00,36.2,35.2,29.49,North,355,7.0,9.0,96,0.01,,---,1.10,VWS V14.01,2013-01-30 00:33:00,
2013-01-29 18:38:00,36.2,35.2,29.49,North,355,6.0,10.0,96,0.01,,---,1.10,VWS V14.01,2013-01-30 00:38:00,
2013-01-29 18:43:00,36.2,35.2,29.49,North,360,8.0,11.0,96,0.02,,---,1.11,VWS V14.01,2013-01-30 00:43:00,
2013-01-29 18:48:00,36.2,35.2,29.49,NE,36,5.0,11.0,96,0.02,,---,1.11,VWS V14.01,2013-01-30 00:48:00,
2013-01-29 18:53:00,36.2,35.2,29.49,North,5,5.0,11.0,96,0.02,,---,1.11,VWS V14.01,2013-01-30 00:53:00,
2013-01-29 18:58:00,36.2,35.2,29.49,NNW,342,5.0,12.0,96,0.03,,---,1.12,VWS V14.01,2013-01-30 00:58:00,
2013-01-29 19:00:00,36.2,35.2,29.52,NNE,30,6.0,12.0,96,0.03,,---,1.12,VWS V14.01,2013-01-30 01:00:00,
2013-01-29 19:03:00,36.2,35.2,29.52,NNW,334,8.0,8.0,96,0.03,,---,1.12,VWS V14.01,2013-01-30 01:03:00,
2013-01-29 19:08:00,36.2,35.2,29.52,North,5,5.0,8.0,96,0.04,,---,1.13,VWS V14.01,2013-01-30 01:08:00,
2013-01-29 19:13:00,36.2,35.2,29.52,North,350,3.0,10.0,96,0.04,,---,1.13,VWS V14.01,2013-01-30 01:13:00,
2013-01-29 19:18:00,36.2,35.2,29.52,North,5,5.0,10.0,96,0.04,,---,1.13,VWS V14.01,2013-01-30 01:18:00,
2013-01-29 19:23:00,36.2,35.2,29.52,North,9,5.0,10.0,96,0.04,,---,1.13,VWS V14.01,2013-01-30 01:23:00,
2013-01-29 19:28:00,36.2,35.2,29.52,NNW,343,3.0,10.0,96,0.05,,---,1.14,VWS V14.01,2013-01-30 01:28:00,
2013-01-29 19:30:00,36.2,35.2,29.52,NNW,338,7.0,10.0,96,0.05,,---,1.14,VWS V14.01,2013-01-30 01:30:00,
2013-01-29 19:33:00,36.2,35.2,29.52,North,355,5.0,7.0,96,0.05,,---,1.14,VWS V14.01,2013-01-30 01:33:00,
2013-01-29 19:38:00,36.2,35.2,29.52,NNW,339,6.0,8.0,96,0.05,,---,1.14,VWS V14.01,2013-01-30 01:38:00,
2013-01-29 19:43:00,36.2,35.2,29.52,NNW,339,9.0,10.0,96,0.05,,---,1.14,VWS V14.01,2013-01-30 01:43:00,
2013-01-29 19:48:00,36.3,35.3,29.52,NNW,339,6.0,10.0,96,0.05,,---,1.14,VWS V14.01,2013-01-30 01:48:00,
2013-01-29 19:53:00,36.3,35.3,29.52,NNW,332,0.0,10.0,96,0.05,,---,1.14,VWS V14.01,2013-01-30 01:53:00,
2013-01-29 19:58:00,36.3,35.3,29.52,North,11,5.0,10.0,96,0.05,,---,1.14,VWS V14.01,2013-01-30 01:58:00,
2013-01-29 20:00:00,36.3,35.3,29.53,NW,325,2.0,10.0,96,0.05,,---,1.14,VWS V14.01,2013-01-30 02:00:00,
2013-01-29 20:03:00,36.3,35.3,29.53,NNW,344,10.0,10.0,96,0.02,,---,1.14,VWS V14.01,2013-01-30 02:03:00,
2013-01-29 20:08:00,36.2,35.2,29.53,North,350,4.0,10.0,96,0.03,,---,1.15,VWS V14.01,2013-01-30 02:08:00,
2013-01-29 20:13:00,36.2,35.2,29.53,North,351,8.0,10.0,96,0.03,,---,1.15,VWS V14.01,2013-01-30 02:13:00,
2013-01-29 20:18:00,36.2,35.2,29.52,NNW,345,8.0,12.0,96,0.03,,---,1.15,VWS V14.01,2013-01-30 02:18:00,
2013-01-29 20:23:00,36.2,35.2,29.52,NNW,346,5.0,13.0,96,0.03,,---,1.15,VWS V14.01,2013-01-30 02:23:00,
2013-01-29 20:28:00,36.0,35.0,29.52,NNW,327,6.0,13.0,96,0.03,,---,1.15,VWS V14.01,2013-01-30 02:28:00,
2013-01-29 20:30:00,36.0,35.0,29.52,NNW,346,6.0,13.0,96,0.04,,---,1.16,VWS V14.01,2013-01-30 02:30:00,
2013-01-29 20:33:00,36.0,35.0,29.52,North,9,5.0,7.0,96,0.02,,---,1.16,VWS V14.01,2013-01-30 02:33:00,
2013-01-29 20:38:00,36.0,35.0,29.52,NNW,339,8.0,10.0,96,0.02,,---,1.16,VWS V14.01,2013-01-30 02:38:00,
2013-01-29 20:43:00,35.9,34.9,29.52,North,351,6.0,11.0,96,0.03,,---,1.17,VWS V14.01,2013-01-30 02:43:00,
2013-01-29 20:48:00,35.9,34.9,29.50,NNW,327,6.0,11.0,96,0.03,,---,1.17,VWS V14.01,2013-01-30 02:48:00,
2013-01-29 20:53:00,35.9,34.9,29.50,North,360,8.0,11.0,96,0.03,,---,1.17,VWS V14.01,2013-01-30 02:53:00,
2013-01-29 20:58:00,35.9,34.9,29.50,North,355,5.0,11.0,96,0.03,,---,1.17,VWS V14.01,2013-01-30 02:58:00,
2013-01-29 21:00:00,35.9,34.9,29.51,NNW,337,4.0,11.0,96,0.03,,---,1.17,VWS V14.01,2013-01-30 03:00:00,
2013-01-29 21:03:00,35.9,34.9,29.51,NNE,28,4.0,5.0,96,0.03,,---,1.17,VWS V14.01,2013-01-30 03:03:00,
2013-01-29 21:08:00,35.9,34.9,29.51,North,355,3.0,8.0,96,0.04,,---,1.18,VWS V14.01,2013-01-30 03:08:00,
2013-01-29 21:13:00,35.9,34.9,29.51,North,355,2.0,8.0,96,0.04,,---,1.18,VWS V14.01,2013-01-30 03:13:00,
2013-01-29 21:18:00,35.9,34.9,29.51,NNE,26,4.0,8.0,96,0.04,,---,1.18,VWS V14.01,2013-01-30 03:18:00,
2013-01-29 21:23:00,35.9,34.9,29.51,NNW,346,5.0,8.0,96,0.05,,---,1.19,VWS V14.01,2013-01-30 03:23:00,
2013-01-29 21:28:00,36.0,35.0,29.51,NNE,14,3.0,8.0,96,0.05,,---,1.19,VWS V14.01,2013-01-30 03:28:00,
2013-01-29 21:30:00,36.0,35.0,29.51,NE,38,4.0,8.0,96,0.05,,---,1.19,VWS V14.01,2013-01-30 03:30:00,
2013-01-29 21:33:00,36.0,35.0,29.51,NE,38,3.0,4.0,96,0.03,,---,1.19,VWS V14.01,2013-01-30 03:33:00,
2013-01-29 21:38:00,36.0,35.0,29.51,NNW,347,4.0,6.0,96,0.03,,---,1.19,VWS V14.01,2013-01-30 03:38:00,
2013-01-29 21:43:00,36.0,35.0,29.51,North,355,2.0,6.0,96,0.03,,---,1.19,VWS V14.01,2013-01-30 03:43:00,
2013-01-29 21:48:00,36.0,35.0,29.50,North,5,2.0,6.0,96,0.04,,---,1.20,VWS V14.01,2013-01-30 03:48:00,
2013-01-29 21:53:00,36.0,35.0,29.50,NE,53,2.0,6.0,96,0.05,,---,1.21,VWS V14.01,2013-01-30 03:53:00,
2013-01-29 21:58:00,36.0,35.0,29.50,NNW,344,0.0,6.0,96,0.05,,---,1.21,VWS V14.01,2013-01-30 03:58:00,
2013-01-29 22:00:00,36.2,35.2,29.52,NNW,344,0.0,6.0,96,0.05,,---,1.21,VWS V14.01,2013-01-30 04:00:00,
2013-01-29 22:03:00,36.2,35.2,29.52,NNW,344,1.0,2.0,96,0.04,,---,1.21,VWS V14.01,2013-01-30 04:03:00,
2013-01-29 22:08:00,36.2,35.2,29.52,North,9,2.0,7.0,96,0.05,,---,1.22,VWS V14.01,2013-01-30 04:08:00,
2013-01-29 22:13:00,36.2,35.2,29.52,North,5,4.0,7.0,96,0.05,,---,1.22,VWS V14.01,2013-01-30 04:13:00,
2013-01-29 22:18:00,36.2,35.2,29.49,North,5,6.0,7.0,96,0.06,,---,1.23,VWS V14.01,2013-01-30 04:18:00,
2013-01-29 22:23:00,36.2,35.2,29.49,NE,51,4.0,8.0,96,0.06,,---,1.23,VWS V14.01,2013-01-30 04:23:00,
2013-01-29 22:28:00,36.2,35.2,29.49,NNE,19,5.0,8.0,96,0.06,,---,1.23,VWS V14.01,2013-01-30 04:28:00,
2013-01-29 22:30:00,36.0,35.0,29.45,North,360,6.0,11.0,96,0.06,,---,1.23,VWS V14.01,2013-01-30 04:30:00,
2013-01-29 22:33:00,36.0,35.0,29.45,North,5,6.0,7.0,96,0.04,,---,1.23,VWS V14.01,2013-01-30 04:33:00,
2013-01-29 22:38:00,36.0,35.2,29.45,NE,51,6.0,10.0,97,0.04,,---,1.23,VWS V14.01,2013-01-30 04:38:00,
2013-01-29 22:43:00,36.0,35.0,29.45,ENE,63,8.0,13.0,96,0.04,,---,1.23,VWS V14.01,2013-01-30 04:43:00,
2013-01-29 22:48:00,35.9,34.9,29.39,ENE,58,5.0,14.0,96,0.04,,---,1.23,VWS V14.01,2013-01-30 04:48:00,
2013-01-29 22:53:00,36.0,35.0,29.39,NE,49,12.0,16.0,96,0.04,,---,1.23,VWS V14.01,2013-01-30 04:53:00,
2013-01-29 22:58:00,36.0,35.0,29.39,ENE,70,5.0,16.0,96,0.04,,---,1.23,VWS V14.01,2013-01-30 04:58:00,
2013-01-29 23:00:00,36.0,35.2,29.42,NE,51,2.0,16.0,97,0.04,,---,1.23,VWS V14.01,2013-01-30 05:00:00,
2013-01-29 23:01:00,36.0,35.2,29.42,NE,51,4.0,16.0,97,0.04,,---,1.23,VWS V14.01,2013-01-30 05:01:00,
2013-01-29 23:02:00,36.0,35.2,29.42,NE,51,1.0,16.0,97,0.04,,---,1.23,VWS V14.01,2013-01-30 05:02:00,
2013-01-29 23:03:00,36.0,35.2,29.42,NNW,331,5.0,5.0,97,0.02,,---,1.23,VWS V14.01,2013-01-30 05:03:00,
2013-01-29 23:08:00,36.2,35.4,29.42,NNE,23,2.0,8.0,97,0.02,,---,1.23,VWS V14.01,2013-01-30 05:08:00,
2013-01-29 23:13:00,36.2,35.4,29.42,NE,36,8.0,11.0,97,0.02,,---,1.23,VWS V14.01,2013-01-30 05:13:00,
2013-01-29 23:18:00,36.2,35.4,29.45,ENE,67,4.0,11.0,97,0.02,,---,1.23,VWS V14.01,2013-01-30 05:18:00,
2013-01-29 23:23:00,36.3,35.5,29.45,WSW,242,6.0,11.0,97,0.02,,---,1.23,VWS V14.01,2013-01-30 05:23:00,
2013-01-29 23:28:00,36.5,35.7,29.45,SW,227,0.0,11.0,97,0.02,,---,1.23,VWS V14.01,2013-01-30 05:28:00,
2013-01-29 23:30:00,36.5,35.5,29.52,WSW,253,1.0,11.0,96,0.02,,---,1.23,VWS V14.01,2013-01-30 05:30:00,
2013-01-29 23:33:00,36.5,35.5,29.52,WSW,254,0.0,1.0,96,0.00,,---,1.23,VWS V14.01,2013-01-30 05:33:00,
2013-01-29 23:38:00,36.5,35.5,29.52,WNW,290,0.0,3.0,96,0.00,,---,1.23,VWS V14.01,2013-01-30 05:38:00,
2013-01-29 23:43:00,36.5,35.5,29.52,West,260,3.0,5.0,96,0.00,,---,1.23,VWS V14.01,2013-01-30 05:43:00,
2013-01-29 23:48:00,36.5,35.5,29.50,West,259,2.0,5.0,96,0.00,,---,1.23,VWS V14.01,2013-01-30 05:48:00,
2013-01-29 23:53:00,36.5,35.5,29.50,NE,38,3.0,6.0,96,0.00,,---,1.23,VWS V14.01,2013-01-30 05:53:00,
2013-01-29 23:58:00,36.3,35.3,29.50,NNW,346,2.0,7.0,96,0.00,,---,1.23,VWS V14.01,2013-01-30 05:58:00,